Time;durP1;ratioP1;P1;durP2;ratioP2;P2;SDS_P1;SDS_P2;PMS_P1;PMS_P2;Temp;Humidity;BMP_temperature;BMP_pressure;BME280_temperature;BME280_humidity;BME280_pressure;Samples;Min_cycle;Max_cycle;Signal;HPM_P1;HPM_P2
2022/03/02 00:02:20;;;;;;;36.85;26.15;;;4.70;85.60;;;;;;5027498;28;20083;-43
2022/03/02 00:04:48;;;;;;;37.60;27.45;;;4.70;85.40;;;;;;5029623;28;20029;-42
2022/03/02 00:07:15;;;;;;;39.28;26.90;;;4.70;85.40;;;;;;5029443;28;20375;-42
2022/03/02 00:09:42;;;;;;;37.03;25.80;;;4.70;85.30;;;;;;5029679;28;20197;-42
2022/03/02 00:12:09;;;;;;;41.03;27.00;;;4.70;85.30;;;;;;5029925;28;20026;-42
2022/03/02 00:14:36;;;;;;;35.97;28.13;;;4.70;85.10;;;;;;5034509;28;20041;-42
2022/03/02 00:17:03;;;;;;;39.30;25.90;;;4.60;85.10;;;;;;5031641;28;20048;-42
2022/03/02 00:19:31;;;;;;;36.53;26.98;;;4.70;85.10;;;;;;5028791;28;20493;-42
2022/03/02 00:21:59;;;;;;;37.83;26.60;;;4.60;85.10;;;;;;5036075;28;20044;-42
2022/03/02 00:24:28;;;;;;;36.80;25.42;;;4.60;84.80;;;;;;5049472;28;20021;-42
2022/03/02 00:26:55;;;;;;;36.90;25.98;;;4.60;84.90;;;;;;5049386;28;20037;-42
2022/03/02 00:29:24;;;;;;;38.40;26.73;;;4.70;84.90;;;;;;5049115;28;20041;-42
2022/03/02 00:31:53;;;;;;;36.35;26.45;;;4.60;85.00;;;;;;5031420;28;20029;-44
2022/03/02 00:34:20;;;;;;;41.70;26.67;;;4.60;85.10;;;;;;5049814;28;20324;-42
2022/03/02 00:36:46;;;;;;;40.67;26.23;;;4.60;84.90;;;;;;5031768;28;20040;-42
2022/03/02 00:39:13;;;;;;;38.38;26.88;;;4.50;85.00;;;;;;5049268;28;20037;-46
2022/03/02 00:41:41;;;;;;;35.90;25.95;;;4.50;84.90;;;;;;5049386;28;20024;-42
2022/03/02 00:44:10;;;;;;;42.65;27.27;;;4.50;84.80;;;;;;5049332;28;20576;-41
2022/03/02 00:46:37;;;;;;;36.25;25.80;;;4.50;84.40;;;;;;5031851;28;20117;-43
2022/03/02 00:49:04;;;;;;;34.63;25.95;;;4.50;84.30;;;;;;5034205;28;20057;-43
2022/03/02 00:51:31;;;;;;;40.42;25.75;;;4.50;84.20;;;;;;5052619;28;20454;-42
2022/03/02 00:53:58;;;;;;;41.47;27.35;;;4.60;84.20;;;;;;5034709;28;20045;-42
2022/03/02 00:56:26;;;;;;;39.78;26.33;;;4.50;84.20;;;;;;5052728;28;20032;-42
2022/03/02 00:58:56;;;;;;;31.33;24.35;;;4.50;84.00;;;;;;5052557;28;20053;-41
2022/03/02 01:01:24;;;;;;;36.67;27.15;;;4.50;83.70;;;;;;5052828;28;20021;-42
2022/03/02 01:03:51;;;;;;;37.58;27.17;;;4.50;83.70;;;;;;5052318;28;20047;-42
2022/03/02 01:06:17;;;;;;;38.30;26.67;;;4.50;83.80;;;;;;5034966;28;20017;-43
2022/03/02 01:08:45;;;;;;;41.53;27.05;;;4.50;83.80;;;;;;5034800;28;20446;-45
2022/03/02 01:11:13;;;;;;;38.85;26.02;;;4.50;83.50;;;;;;5052375;28;20409;-43
2022/03/02 01:13:38;;;;;;;38.97;26.60;;;4.50;83.00;;;;;;5052095;28;20033;-45
2022/03/02 01:16:05;;;;;;;40.17;26.25;;;4.50;82.90;;;;;;5034970;28;20099;-41
2022/03/02 01:18:31;;;;;;;36.10;25.98;;;4.50;82.80;;;;;;5043749;28;20040;-42
2022/03/02 01:21:09;;;;;;;36.95;25.20;;;4.50;82.80;;;;;;5052055;28;20103;-43
2022/03/02 01:23:36;;;;;;;35.38;25.20;;;4.50;82.40;;;;;;5051936;28;20060;-42
2022/03/02 01:26:08;;;;;;;33.17;22.98;;;4.50;82.10;;;;;;5051904;28;20040;-42
2022/03/02 01:28:35;;;;;;;37.03;26.92;;;4.50;81.90;;;;;;5052138;28;20458;-42
2022/03/02 01:31:02;;;;;;;36.28;25.40;;;4.50;81.70;;;;;;5051748;28;20369;-43
2022/03/02 01:33:29;;;;;;;35.45;23.77;;;4.60;81.50;;;;;;5034260;28;20036;-42
2022/03/02 01:35:58;;;;;;;32.40;23.25;;;4.50;81.20;;;;;;5051426;28;20025;-42
2022/03/02 01:38:25;;;;;;;35.47;23.95;;;4.60;81.10;;;;;;5018003;28;20041;-42
2022/03/02 01:40:54;;;;;;;34.03;23.33;;;4.60;81.00;;;;;;5034663;28;20090;-42
2022/03/02 01:43:21;;;;;;;35.65;23.48;;;4.60;81.00;;;;;;5034005;28;20036;-42
2022/03/02 01:45:48;;;;;;;34.63;23.15;;;4.60;81.10;;;;;;5051827;28;20064;-42
2022/03/02 01:48:15;;;;;;;36.65;24.88;;;4.70;81.30;;;;;;5051908;28;20085;-42
2022/03/02 01:50:43;;;;;;;35.33;25.23;;;4.60;81.70;;;;;;5051423;28;20040;-43
2022/03/02 01:53:09;;;;;;;38.88;24.83;;;4.70;81.70;;;;;;5051755;28;20144;-42
2022/03/02 01:55:37;;;;;;;37.35;25.13;;;4.70;81.80;;;;;;5034305;28;20457;-42
2022/03/02 01:58:03;;;;;;;35.13;25.85;;;4.60;81.80;;;;;;5034707;28;20029;-42
2022/03/02 02:00:31;;;;;;;33.92;23.98;;;4.70;82.00;;;;;;5050316;28;20040;-42
2022/03/02 02:03:00;;;;;;;36.67;26.00;;;4.60;82.20;;;;;;5000769;28;20171;-42
2022/03/02 02:05:26;;;;;;;35.65;25.50;;;4.60;82.50;;;;;;5051733;28;20460;-43
2022/03/02 02:07:53;;;;;;;38.08;27.00;;;4.60;82.70;;;;;;5033532;28;20044;-42
2022/03/02 02:10:33;;;;;;;38.55;27.83;;;4.50;82.90;;;;;;5034007;28;20457;-43
2022/03/02 02:13:05;;;;;;;36.80;26.85;;;4.60;82.90;;;;;;5026837;28;20090;-42
2022/03/02 02:15:31;;;;;;;39.40;27.08;;;4.50;83.10;;;;;;5030286;28;20045;-44
2022/03/02 02:18:01;;;;;;;40.03;27.70;;;4.50;83.10;;;;;;5031245;28;20328;-44
2022/03/02 02:20:28;;;;;;;;;;;4.50;83.10;;;;;;5049673;28;20036;-42
2022/03/02 02:22:57;;;;;;;36.92;26.80;;;4.50;82.50;;;;;;5051091;28;19919;-42
2022/03/02 02:25:23;;;;;;;38.35;28.17;;;4.50;82.20;;;;;;5051275;28;20056;-43
2022/03/02 02:27:49;;;;;;;36.15;26.10;;;4.40;81.90;;;;;;5050604;28;20060;-44
2022/03/02 02:30:27;;;;;;;36.30;27.00;;;4.50;82.10;;;;;;5051061;28;20331;-43
2022/03/02 02:32:55;;;;;;;37.05;26.90;;;4.40;82.20;;;;;;5031941;28;20193;-43
2022/03/02 02:35:25;;;;;;;41.80;27.15;;;4.40;82.10;;;;;;5049667;28;20043;-42
2022/03/02 02:37:54;;;;;;;47.38;28.60;;;4.40;82.10;;;;;;5050470;28;20117;-44
2022/03/02 02:40:21;;;;;;;38.22;29.30;;;4.40;82.00;;;;;;5050857;28;20013;-42
2022/03/02 02:42:57;;;;;;;38.03;27.15;;;4.40;82.00;;;;;;5033250;28;20044;-43
2022/03/02 02:45:24;;;;;;;39.72;27.13;;;4.30;82.00;;;;;;5050073;28;20427;-42
2022/03/02 02:47:54;;;;;;;40.22;28.33;;;4.30;82.00;;;;;;5050658;28;20549;-42
2022/03/02 02:50:23;;;;;;;;;;;4.30;82.20;;;;;;5017280;28;20035;-43
2022/03/02 02:52:51;;;;;;;39.20;28.40;;;4.30;82.10;;;;;;5050769;28;19905;-43
2022/03/02 02:55:19;;;;;;;40.80;27.05;;;4.20;82.00;;;;;;5050522;28;20029;-42
2022/03/02 02:57:47;;;;;;;38.40;27.60;;;4.20;82.00;;;;;;5016338;28;20364;-43
2022/03/02 03:00:17;;;;;;;41.15;29.17;;;4.20;81.80;;;;;;5050098;28;20025;-45
2022/03/02 03:02:49;;;;;;;38.67;27.75;;;4.20;81.90;;;;;;5049921;28;20025;-42
2022/03/02 03:05:34;;;;;;;41.03;28.17;;;4.20;82.00;;;;;;5032866;28;20407;-43
2022/03/02 03:08:11;;;;;;;42.60;30.42;;;4.20;82.10;;;;;;5046272;28;20108;-42
2022/03/02 03:10:39;;;;;;;39.08;28.30;;;4.10;82.00;;;;;;5049702;28;20092;-44
2022/03/02 03:13:07;;;;;;;44.20;29.75;;;4.10;82.30;;;;;;5016231;28;20040;-44
2022/03/02 03:15:34;;;;;;;38.63;27.95;;;4.10;82.30;;;;;;5029141;28;20053;-44
2022/03/02 03:18:07;;;;;;;40.70;28.77;;;4.10;82.20;;;;;;5029382;28;20041;-43
2022/03/02 03:20:35;;;;;;;42.35;30.65;;;4.00;82.30;;;;;;5029356;28;20026;-49
2022/03/02 03:23:11;;;;;;;42.03;28.55;;;4.00;82.50;;;;;;5029982;28;20025;-44
2022/03/02 03:25:41;;;;;;;45.45;29.77;;;3.90;82.70;;;;;;5029038;28;20028;-45
2022/03/02 03:28:08;;;;;;;39.83;28.38;;;3.90;82.80;;;;;;5030218;28;20049;-42
2022/03/02 03:30:37;;;;;;;40.45;28.85;;;3.90;83.10;;;;;;5029327;28;20347;-45
2022/03/02 03:33:04;;;;;;;39.25;28.75;;;3.80;83.30;;;;;;5029007;28;20025;-43
2022/03/02 03:35:33;;;;;;;42.25;30.45;;;3.80;83.30;;;;;;5029774;28;20032;-42
2022/03/02 03:38:00;;;;;;;39.58;28.98;;;3.70;83.60;;;;;;5029508;28;20068;-47
2022/03/02 03:40:26;;;;;;;42.85;30.35;;;3.70;83.70;;;;;;5030132;28;20030;-46
2022/03/02 03:42:54;;;;;;;43.20;28.98;;;3.60;83.60;;;;;;5028959;28;20044;-42
2022/03/02 03:45:21;;;;;;;45.22;30.13;;;3.50;83.70;;;;;;5030104;28;20079;-44
2022/03/02 03:47:49;;;;;;;44.67;32.08;;;3.50;83.70;;;;;;5028473;28;20049;-44
2022/03/02 03:50:17;;;;;;;42.60;29.55;;;3.50;83.80;;;;;;5028867;28;20048;-44
2022/03/02 03:52:44;;;;;;;48.88;31.80;;;3.50;83.80;;;;;;5029092;28;20132;-43
2022/03/02 03:55:12;;;;;;;43.67;30.55;;;3.50;83.90;;;;;;5029669;28;20099;-44
2022/03/02 03:57:44;;;;;;;47.63;32.05;;;3.50;83.90;;;;;;5012674;28;20104;-42
2022/03/02 04:00:14;;;;;;;44.30;30.63;;;3.40;83.90;;;;;;5029976;28;20041;-42
2022/03/02 04:02:45;;;;;;;43.72;30.77;;;3.40;84.10;;;;;;5013031;28;20180;-48
2022/03/02 04:05:13;;;;;;;45.25;30.90;;;3.40;84.00;;;;;;5012619;28;20036;-45
2022/03/02 04:07:40;;;;;;;49.63;32.30;;;3.40;84.00;;;;;;5030162;28;20117;-44
2022/03/02 04:10:10;;;;;;;49.20;30.60;;;3.30;84.10;;;;;;5029275;28;20033;-43
2022/03/02 04:12:37;;;;;;;44.20;31.48;;;3.40;84.10;;;;;;5029837;28;20091;-46
2022/03/02 04:15:10;;;;;;;46.58;31.05;;;3.30;84.20;;;;;;5038568;28;20482;-45
2022/03/02 04:17:36;;;;;;;42.97;29.52;;;3.30;84.20;;;;;;5032071;28;20143;-45
2022/03/02 04:20:14;;;;;;;44.78;32.42;;;3.20;84.40;;;;;;5049658;28;20046;-44
2022/03/02 04:22:41;;;;;;;49.55;34.33;;;3.20;84.70;;;;;;5050074;28;20104;-44
2022/03/02 04:25:08;;;;;;;47.50;31.45;;;3.20;84.70;;;;;;5053314;28;20033;-48
2022/03/02 04:27:37;;;;;;;48.70;32.22;;;3.20;84.70;;;;;;5035886;28;20115;-44
2022/03/02 04:30:06;;;;;;;52.45;32.03;;;3.20;84.70;;;;;;5053099;28;20098;-47
2022/03/02 04:32:33;;;;;;;45.72;30.88;;;3.20;84.70;;;;;;5036197;28;20049;-47
2022/03/02 04:34:59;;;;;;;46.22;31.35;;;3.10;84.80;;;;;;5050648;28;20098;-47
2022/03/02 04:37:26;;;;;;;50.08;32.28;;;3.10;84.90;;;;;;5032929;28;20385;-45
2022/03/02 04:39:53;;;;;;;48.90;31.48;;;3.00;84.90;;;;;;5048989;28;20498;-43
2022/03/02 04:42:20;;;;;;;45.22;30.88;;;3.00;85.00;;;;;;5035145;28;20178;-47
2022/03/02 04:44:48;;;;;;;46.33;31.48;;;3.00;85.10;;;;;;5052521;28;20033;-42
2022/03/02 04:47:16;;;;;;;47.08;31.70;;;2.90;85.10;;;;;;5052839;28;20042;-42
2022/03/02 04:49:43;;;;;;;46.92;31.52;;;2.90;85.20;;;;;;5052717;28;20455;-44
2022/03/02 04:52:13;;;;;;;55.17;32.47;;;2.90;85.20;;;;;;5052329;28;20056;-41
2022/03/02 04:57:26;;;;;;;49.08;29.90;;;2.90;85.30;;;;;;5052840;28;20539;-42
2022/03/02 04:59:53;;;;;;;45.85;32.03;;;2.90;85.30;;;;;;5052256;28;20037;-42
2022/03/02 05:02:19;;;;;;;44.85;31.30;;;2.80;85.30;;;;;;5035295;28;20107;-43
2022/03/02 05:04:46;;;;;;;47.20;32.63;;;2.80;85.40;;;;;;5052518;28;20037;-43
2022/03/02 05:07:15;;;;;;;44.33;29.92;;;2.70;85.50;;;;;;5052180;28;20048;-43
2022/03/02 05:09:43;;;;;;;48.85;32.17;;;2.70;85.50;;;;;;5051905;28;20033;-44
2022/03/02 05:12:14;;;;;;;44.33;31.45;;;2.70;85.50;;;;;;5035852;28;20072;-42
2022/03/02 05:14:40;;;;;;;47.30;30.88;;;2.70;85.70;;;;;;5052212;28;20476;-42
2022/03/02 05:17:08;;;;;;;53.65;33.72;;;2.60;85.70;;;;;;5034650;28;20038;-42
2022/03/02 05:19:35;;;;;;;49.97;34.33;;;2.60;85.70;;;;;;5034565;28;20086;-44
2022/03/02 05:22:02;;;;;;;52.42;34.10;;;2.60;85.90;;;;;;5051711;28;20021;-43
2022/03/02 05:24:28;;;;;;;47.97;31.15;;;2.60;86.10;;;;;;5052227;28;20078;-45
2022/03/02 05:26:53;;;;;;;56.53;34.88;;;2.60;86.10;;;;;;5034454;28;20036;-42
2022/03/02 05:29:20;;;;;;;58.30;33.45;;;2.50;86.20;;;;;;5034706;28;20024;-44
2022/03/02 05:31:48;;;;;;;46.95;31.67;;;2.50;86.20;;;;;;5034003;28;20052;-46
2022/03/02 05:34:17;;;;;;;55.13;33.80;;;2.50;86.20;;;;;;5051908;28;20033;-43
2022/03/02 05:36:44;;;;;;;58.60;35.40;;;2.50;86.40;;;;;;5052092;28;20091;-42
2022/03/02 05:39:11;;;;;;;54.13;35.83;;;2.50;86.50;;;;;;5051481;28;20025;-42
2022/03/02 05:41:39;;;;;;;49.22;32.63;;;2.40;86.60;;;;;;5051645;28;20064;-43
2022/03/02 05:44:07;;;;;;;50.42;33.30;;;2.40;86.70;;;;;;5051590;28;20374;-43
2022/03/02 05:46:38;;;;;;;51.67;33.70;;;2.50;86.60;;;;;;5051817;28;20505;-42
2022/03/02 05:49:08;;;;;;;49.50;33.13;;;2.50;86.50;;;;;;5034624;28;20043;-41
2022/03/02 05:51:36;;;;;;;50.85;33.70;;;2.40;86.50;;;;;;5051727;28;20029;-42
2022/03/02 05:54:05;;;;;;;50.83;33.28;;;2.40;86.50;;;;;;5035115;28;20033;-42
2022/03/02 05:56:37;;;;;;;51.67;32.78;;;2.40;86.50;;;;;;5001263;28;20032;-42
2022/03/02 05:59:08;;;;;;;46.85;31.02;;;2.40;86.50;;;;;;5051212;28;20355;-43
2022/03/02 06:01:35;;;;;;;48.20;32.75;;;2.40;86.50;;;;;;5001648;28;20079;-42
2022/03/02 06:04:05;;;;;;;50.53;32.72;;;2.40;86.40;;;;;;5017057;28;20126;-43
2022/03/02 06:06:32;;;;;;;48.92;32.78;;;2.30;86.50;;;;;;5001557;28;20037;-42
2022/03/02 06:09:02;;;;;;;51.72;33.47;;;2.40;86.40;;;;;;5017348;28;20466;-44
2022/03/02 06:11:29;;;;;;;47.63;32.47;;;2.30;86.50;;;;;;5050779;28;20094;-43
2022/03/02 06:13:56;;;;;;;49.33;33.38;;;2.30;86.40;;;;;;5051121;28;20531;-42
2022/03/02 06:16:24;;;;;;;52.80;34.55;;;2.30;86.40;;;;;;5033792;28;20068;-42
2022/03/02 06:18:52;;;;;;;47.95;31.98;;;2.30;86.50;;;;;;5050805;28;20527;-42
2022/03/02 06:21:32;;;;;;;47.17;33.63;;;2.30;86.50;;;;;;5017257;28;20044;-44
2022/03/02 06:24:01;;;;;;;51.40;34.45;;;2.40;86.40;;;;;;5050896;28;20024;-43
2022/03/02 06:26:32;;;;;;;52.03;32.97;;;2.30;86.50;;;;;;5051001;28;20032;-42
2022/03/02 06:28:59;;;;;;;54.78;34.08;;;2.30;86.70;;;;;;5050915;28;20092;-43
2022/03/02 06:31:25;;;;;;;49.45;33.08;;;2.30;86.70;;;;;;5050893;28;20060;-44
2022/03/02 06:33:52;;;;;;;49.75;32.15;;;2.30;86.80;;;;;;5050804;28;20037;-44
2022/03/02 06:36:20;;;;;;;53.58;34.70;;;2.30;86.80;;;;;;5050832;28;20036;-43
2022/03/02 06:38:49;;;;;;;55.70;33.60;;;2.30;86.90;;;;;;5037169;28;20116;-42
2022/03/02 06:41:33;;;;;;;52.90;33.05;;;2.40;87.00;;;;;;5050703;28;20454;-41
2022/03/02 06:44:24;;;;;;;52.13;32.95;;;2.30;86.80;;;;;;5032641;28;20029;-42
2022/03/02 06:47:01;;;;;;;58.92;35.50;;;2.40;86.80;;;;;;5049739;28;20036;-41
2022/03/02 06:49:58;;;;;;;54.05;32.50;;;2.40;86.80;;;;;;5049873;28;20036;-42
2022/03/02 06:52:32;;;;;;;50.63;31.98;;;2.40;86.80;;;;;;5032753;28;20389;-45
2022/03/02 06:55:01;;;;;;;51.42;33.40;;;2.40;86.70;;;;;;5050262;28;20039;-42
2022/03/02 06:57:29;;;;;;;50.42;34.00;;;2.40;86.80;;;;;;5050392;28;20105;-41
2022/03/02 07:00:03;;;;;;;53.08;33.50;;;2.50;86.80;;;;;;5049846;28;20111;-41
2022/03/02 07:02:57;;;;;;;52.13;34.13;;;2.50;86.60;;;;;;5032511;28;20040;-44
2022/03/02 07:05:22;;;;;;;58.15;34.83;;;2.50;86.60;;;;;;5032721;28;20018;-42
2022/03/02 07:07:51;;;;;;;53.50;34.67;;;2.50;86.50;;;;;;5050173;28;20342;-43
2022/03/02 07:10:18;;;;;;;55.08;34.42;;;2.50;86.50;;;;;;5050098;28;20049;-42
2022/03/02 07:12:44;;;;;;;54.38;34.95;;;2.60;86.40;;;;;;5050360;28;20084;-43
2022/03/02 07:15:11;;;;;;;49.65;33.40;;;2.60;86.40;;;;;;5050124;28;20048;-42
2022/03/02 07:17:41;;;;;;;56.80;35.20;;;2.70;86.40;;;;;;5050548;28;20025;-41
2022/03/02 07:20:12;;;;;;;53.33;34.50;;;2.70;86.40;;;;;;5032964;28;20331;-43
2022/03/02 07:22:50;;;;;;;49.90;32.83;;;2.70;86.30;;;;;;5017077;28;20480;-43
2022/03/02 07:25:37;;;;;;;52.67;34.20;;;2.70;86.00;;;;;;5032204;28;20029;-42
2022/03/02 07:28:15;;;;;;;53.47;34.80;;;2.80;86.00;;;;;;5032524;28;20041;-44
2022/03/02 07:30:48;;;;;;;49.67;33.17;;;2.80;86.00;;;;;;5026895;28;20040;-44
2022/03/02 07:33:18;;;;;;;52.15;33.10;;;2.90;86.20;;;;;;5049338;28;20024;-41
2022/03/02 07:35:55;;;;;;;55.50;35.55;;;3.00;86.10;;;;;;5031872;28;20090;-44
2022/03/02 07:38:22;;;;;;;54.88;34.45;;;3.00;86.00;;;;;;5032107;28;20048;-44
2022/03/02 07:40:49;;;;;;;51.75;34.60;;;3.10;85.90;;;;;;5031637;28;20029;-43
2022/03/02 07:43:24;;;;;;;50.70;33.83;;;3.20;85.60;;;;;;5049593;28;20025;-42
2022/03/02 07:45:51;;;;;;;48.63;33.40;;;3.20;85.70;;;;;;5032802;28;20417;-41
2022/03/02 07:48:19;;;;;;;55.10;34.00;;;3.30;85.50;;;;;;5049935;28;20117;-43
2022/03/02 07:50:49;;;;;;;50.78;34.95;;;3.40;85.50;;;;;;5049735;28;20123;-41
2022/03/02 07:53:21;;;;;;;54.40;34.33;;;3.50;85.20;;;;;;5031784;28;20040;-42
2022/03/02 07:55:52;;;;;;;48.88;33.05;;;3.60;85.10;;;;;;5033073;28;20039;-44
2022/03/02 07:58:18;;;;;;;54.75;35.40;;;3.90;84.80;;;;;;5035097;28;20098;-43
2022/03/02 08:00:52;;;;;;;48.88;32.22;;;4.00;84.30;;;;;;5035930;28;20020;-43
2022/03/02 08:03:19;;;;;;;50.38;33.40;;;4.20;84.00;;;;;;5036742;28;20025;-42
2022/03/02 08:05:45;;;;;;;48.50;31.20;;;4.40;83.10;;;;;;5036456;28;20025;-42
2022/03/02 08:08:14;;;;;;;49.20;32.90;;;4.50;82.60;;;;;;5053786;28;20033;-43
2022/03/02 08:10:44;;;;;;;46.92;31.90;;;4.70;82.30;;;;;;5019781;28;20043;-42
2022/03/02 08:13:15;;;;;;;47.78;32.08;;;5.00;82.00;;;;;;5036623;28;20335;-43
2022/03/02 08:15:42;;;;;;;45.25;32.33;;;5.00;80.60;;;;;;5053248;28;20063;-42
2022/03/02 08:18:10;;;;;;;45.45;31.38;;;5.20;81.00;;;;;;5052992;28;20083;-42
2022/03/02 08:20:42;;;;;;;46.42;30.88;;;5.30;80.10;;;;;;5053819;28;20051;-42
2022/03/02 08:23:09;;;;;;;45.53;31.27;;;5.50;79.80;;;;;;5019401;28;20082;-42
2022/03/02 08:25:36;;;;;;;42.95;29.92;;;5.50;78.90;;;;;;5053290;28;20029;-42
2022/03/02 08:28:05;;;;;;;47.08;31.58;;;5.70;78.60;;;;;;5035153;28;20119;-43
2022/03/02 08:30:36;;;;;;;45.90;30.57;;;5.90;79.00;;;;;;5035576;28;20029;-42
2022/03/02 08:33:11;;;;;;;42.17;30.05;;;5.80;78.20;;;;;;5034993;28;20302;-42
2022/03/02 08:35:51;;;;;;;46.35;32.10;;;5.90;77.60;;;;;;5051201;28;20037;-44
2022/03/02 08:38:19;;;;;;;45.53;31.70;;;5.80;77.60;;;;;;5035097;28;20481;-43
2022/03/02 08:40:48;;;;;;;45.25;30.15;;;5.90;78.00;;;;;;5034316;28;20663;-43
2022/03/02 08:43:18;;;;;;;47.10;33.85;;;6.00;77.80;;;;;;5034553;28;20106;-43
2022/03/02 08:45:47;;;;;;;42.38;29.60;;;6.30;76.60;;;;;;5034907;28;20063;-43
2022/03/02 08:48:19;;;;;;;41.25;29.02;;;6.30;76.60;;;;;;5018547;28;20454;-43
2022/03/02 08:50:47;;;;;;;49.78;32.30;;;6.30;76.80;;;;;;5052749;28;20176;-42
2022/03/02 08:53:17;;;;;;;38.70;29.70;;;6.20;76.80;;;;;;5018261;28;20408;-43
2022/03/02 08:55:44;;;;;;;;;;;6.20;76.80;;;;;;5035829;28;20040;-47
2022/03/02 08:58:11;;;;;;;41.67;29.73;;;6.20;76.70;;;;;;5052363;28;20268;-44
2022/03/02 09:00:38;;;;;;;41.63;29.83;;;6.20;77.10;;;;;;5040056;28;20346;-44
2022/03/02 09:03:06;;;;;;;44.45;30.80;;;6.30;76.80;;;;;;5034657;28;20021;-47
2022/03/02 09:05:35;;;;;;;40.65;30.02;;;6.30;77.00;;;;;;5052685;28;20025;-46
2022/03/02 09:08:02;;;;;;;43.10;30.17;;;6.40;76.60;;;;;;5052122;28;20438;-43
2022/03/02 09:10:29;;;;;;;41.42;29.85;;;6.40;77.10;;;;;;5051303;28;20306;-44
2022/03/02 09:12:56;;;;;;;40.83;29.05;;;6.60;76.60;;;;;;5034996;28;20566;-44
2022/03/02 09:15:26;;;;;;;40.15;30.45;;;6.60;75.90;;;;;;5052057;28;20061;-46
2022/03/02 09:17:52;;;;;;;43.08;28.85;;;6.60;75.80;;;;;;5051756;28;20450;-43
2022/03/02 09:20:18;;;;;;;39.13;28.52;;;6.70;75.80;;;;;;5034779;28;20119;-43
2022/03/02 09:22:45;;;;;;;43.92;29.25;;;6.90;76.00;;;;;;5052311;28;20033;-43
2022/03/02 09:25:14;;;;;;;40.53;28.35;;;6.80;75.70;;;;;;5051596;28;20048;-44
2022/03/02 09:27:45;;;;;;;43.17;29.20;;;7.20;75.80;;;;;;5052492;28;20040;-43
2022/03/02 09:30:13;;;;;;;39.30;28.20;;;7.30;74.60;;;;;;5018440;28;20037;-45
2022/03/02 09:32:44;;;;;;;36.58;27.48;;;7.30;73.70;;;;;;5051364;28;20094;-43
2022/03/02 09:35:14;;;;;;;32.67;25.42;;;7.30;72.80;;;;;;5034426;28;20372;-43
2022/03/02 09:37:49;;;;;;;33.85;27.38;;;7.60;72.40;;;;;;5051049;28;20029;-44
2022/03/02 09:40:29;;;;;;;37.40;26.83;;;7.90;71.30;;;;;;5045888;28;20041;-43
2022/03/02 09:43:15;;;;;;;36.53;27.60;;;7.90;69.80;;;;;;5017776;28;20033;-44
2022/03/02 09:45:43;;;;;;;41.90;28.45;;;7.80;70.20;;;;;;5051784;28;20031;-44
2022/03/02 09:48:38;;;;;;;37.70;28.77;;;7.90;70.60;;;;;;5051603;28;20087;-47
2022/03/02 09:51:07;;;;;;;37.38;29.85;;;7.60;71.30;;;;;;5048925;28;20036;-44
2022/03/02 09:53:35;;;;;;;36.03;28.07;;;7.50;72.30;;;;;;5034352;28;20037;-45
2022/03/02 09:56:08;;;;;;;37.22;28.00;;;7.40;72.10;;;;;;5051720;28;20100;-43
2022/03/02 09:58:39;;;;;;;38.95;28.48;;;7.40;72.60;;;;;;5051109;28;20036;-43
2022/03/02 10:01:14;;;;;;;37.25;27.20;;;7.50;72.50;;;;;;5034142;28;20068;-44
2022/03/02 10:03:47;;;;;;;37.60;27.90;;;7.60;71.20;;;;;;5018760;28;20033;-42
2022/03/02 10:06:19;;;;;;;34.30;26.67;;;7.50;71.00;;;;;;5017653;28;20029;-42
2022/03/02 10:08:51;;;;;;;38.13;26.92;;;7.50;71.70;;;;;;5034103;28;20112;-42
2022/03/02 10:11:27;;;;;;;38.03;27.02;;;7.70;71.80;;;;;;5034742;28;20086;-45
2022/03/02 10:13:57;;;;;;;36.00;28.25;;;7.70;71.60;;;;;;5051191;28;20021;-45
2022/03/02 10:16:29;;;;;;;35.47;26.25;;;7.90;70.90;;;;;;5050805;28;20526;-44
2022/03/02 10:19:21;;;;;;;38.42;26.27;;;7.90;71.30;;;;;;5013777;28;20048;-43
2022/03/02 10:22:30;;;;;;;36.47;27.52;;;7.90;68.80;;;;;;5016230;28;20037;-45
2022/03/02 10:25:13;;;;;;;34.55;27.70;;;8.00;70.70;;;;;;5018696;28;20037;-44
2022/03/02 10:28:00;;;;;;;39.50;27.92;;;7.90;69.80;;;;;;5051126;28;20082;-46
2022/03/02 10:30:35;;;;;;;34.10;27.85;;;7.90;70.70;;;;;;5050839;28;20033;-44
2022/03/02 10:33:39;;;;;;;36.95;28.05;;;7.90;70.70;;;;;;5018205;28;20115;-44
2022/03/02 10:36:25;;;;;;;36.47;26.80;;;8.00;69.40;;;;;;5033305;28;20025;-45
2022/03/02 10:39:13;;;;;;;37.50;27.73;;;7.90;69.30;;;;;;5050641;28;20025;-44
2022/03/02 10:41:52;;;;;;;39.25;28.27;;;8.00;70.50;;;;;;5050779;28;20033;-42
2022/03/02 10:44:47;;;;;;;41.38;28.88;;;7.90;69.80;;;;;;5033091;28;20029;-44
2022/03/02 10:47:20;;;;;;;39.47;28.95;;;7.80;71.20;;;;;;5032809;28;20116;-45
2022/03/02 10:49:47;;;;;;;35.78;27.63;;;7.80;70.10;;;;;;5017049;28;20128;-45
2022/03/02 10:52:15;;;;;;;38.28;28.15;;;7.90;70.50;;;;;;5050541;28;20041;-46
2022/03/02 10:54:44;;;;;;;36.85;28.48;;;7.80;70.70;;;;;;5032994;28;20043;-45
2022/03/02 10:57:12;;;;;;;38.15;29.17;;;7.70;70.10;;;;;;5016346;28;20780;-43
2022/03/02 10:59:43;;;;;;;47.78;36.63;;;7.80;70.20;;;;;;5016585;28;20025;-46
2022/03/02 11:02:14;;;;;;;52.78;38.13;;;7.80;70.50;;;;;;5000446;28;20108;-44
2022/03/02 11:04:44;;;;;;;37.55;27.77;;;7.70;71.20;;;;;;5033124;28;20527;-45
2022/03/02 11:07:15;;;;;;;38.55;28.88;;;7.90;70.40;;;;;;5032269;28;20090;-43
2022/03/02 11:09:48;;;;;;;42.70;28.98;;;7.70;71.00;;;;;;5032481;28;20090;-44
2022/03/02 11:12:15;;;;;;;39.13;29.10;;;7.80;70.30;;;;;;5000466;28;20048;-46
2022/03/02 11:15:03;;;;;;;40.88;29.10;;;7.70;71.30;;;;;;5013434;28;20103;-44
2022/03/02 11:17:31;;;;;;;38.15;28.30;;;7.70;71.20;;;;;;5015804;28;20056;-43
2022/03/02 11:20:05;;;;;;;38.13;30.00;;;7.70;71.10;;;;;;5049456;28;20335;-43
2022/03/02 11:22:34;;;;;;;43.67;28.58;;;7.60;71.00;;;;;;5031969;28;20095;-43
2022/03/02 11:25:02;;;;;;;37.22;27.95;;;7.70;71.10;;;;;;5032307;28;20029;-43
2022/03/02 11:27:46;;;;;;;41.72;30.17;;;7.60;70.90;;;;;;5049419;28;20040;-43
2022/03/02 11:30:21;;;;;;;41.28;29.48;;;7.80;70.70;;;;;;5049192;28;20056;-42
2022/03/02 11:32:49;;;;;;;39.90;29.08;;;7.80;71.30;;;;;;5049798;28;20402;-44
2022/03/02 11:35:19;;;;;;;39.00;29.48;;;7.90;70.60;;;;;;5032150;28;20040;-43
2022/03/02 11:37:59;;;;;;;40.72;30.30;;;7.70;71.10;;;;;;5032404;28;20052;-43
2022/03/02 11:40:56;;;;;;;51.17;37.17;;;7.70;71.60;;;;;;5016324;28;20029;-46
2022/03/02 11:43:28;;;;;;;41.45;31.48;;;7.90;71.70;;;;;;5049765;28;20423;-43
2022/03/02 11:46:15;;;;;;;44.05;30.48;;;7.80;71.10;;;;;;5050018;28;20026;-43
2022/03/02 11:48:46;;;;;;;38.20;29.65;;;7.70;71.00;;;;;;5034660;28;20099;-43
2022/03/02 11:51:26;;;;;;;44.22;31.92;;;7.70;70.80;;;;;;5049630;28;20029;-45
2022/03/02 11:54:13;;;;;;;45.72;30.92;;;7.60;72.40;;;;;;5049678;28;20033;-48
2022/03/02 11:56:39;;;;;;;43.38;32.58;;;7.60;74.90;;;;;;5049554;28;20037;-45
2022/03/02 11:59:09;;;;;;;44.08;31.90;;;7.50;75.80;;;;;;5049588;28;20041;-42
2022/03/02 12:01:50;;;;;;;46.63;32.30;;;7.50;76.00;;;;;;5049687;28;20029;-46
2022/03/02 12:04:17;;;;;;;47.50;32.45;;;7.40;76.50;;;;;;5049434;28;20430;-44
2022/03/02 12:06:54;;;;;;;44.15;33.13;;;7.30;75.80;;;;;;5032133;28;20036;-48
2022/03/02 12:09:38;;;;;;;46.85;34.08;;;7.30;76.30;;;;;;5049109;28;20370;-44
2022/03/02 12:12:18;;;;;;;46.55;32.40;;;7.40;76.70;;;;;;5048945;28;20025;-45
2022/03/02 12:15:01;;;;;;;;;;;7.30;76.20;;;;;;5050190;28;20033;-42
2022/03/02 12:17:33;;;;;;;48.83;32.83;;;7.30;77.00;;;;;;5015868;28;20261;-44
2022/03/02 12:20:19;;;;;;;50.22;35.75;;;7.30;76.10;;;;;;5049578;28;20023;-43
2022/03/02 12:22:56;;;;;;;47.97;33.40;;;7.10;75.70;;;;;;5049024;28;20037;-44
2022/03/02 12:25:26;;;;;;;48.58;36.28;;;7.00;76.40;;;;;;5031821;28;20431;-44
2022/03/02 12:28:14;;;;;;;54.50;35.30;;;7.00;76.40;;;;;;5031797;28;20053;-43
2022/03/02 12:30:42;;;;;;;55.13;38.40;;;6.90;76.40;;;;;;5029596;28;20090;-44
2022/03/02 12:33:09;;;;;;;53.25;37.35;;;6.90;77.90;;;;;;5025686;28;20045;-43
2022/03/02 12:35:37;;;;;;;54.72;35.35;;;6.90;77.60;;;;;;5048089;28;20036;-45
2022/03/02 12:38:10;;;;;;;50.92;34.28;;;6.90;77.50;;;;;;5012356;28;20096;-42
2022/03/02 12:40:42;;;;;;;52.72;35.78;;;6.90;78.00;;;;;;5029457;28;20024;-45
2022/03/02 12:43:16;;;;;;;47.80;34.58;;;6.90;78.60;;;;;;5008623;28;20350;-42
2022/03/02 12:45:51;;;;;;;48.35;33.60;;;6.90;77.80;;;;;;5035511;28;20571;-42
2022/03/02 12:48:20;;;;;;;62.38;36.97;;;6.90;79.50;;;;;;5034930;28;20028;-47
2022/03/02 12:50:49;;;;;;;64.07;38.15;;;6.70;78.90;;;;;;5035416;28;20082;-42
2022/03/02 12:53:16;;;;;;;55.78;38.33;;;6.50;79.70;;;;;;5035336;28;20430;-43
2022/03/02 12:55:44;;;;;;;51.53;36.78;;;6.50;80.20;;;;;;5015652;28;20447;-42
2022/03/02 12:58:10;;;;;;;67.43;40.38;;;6.50;80.70;;;;;;5042236;28;20385;-42
2022/03/02 13:00:38;;;;;;;57.42;38.20;;;6.50;81.50;;;;;;5052125;28;20029;-44